Impacts METAR Board
IDs:

KDCA - Washington/National, VA, US

Updated at: 1100 UTC 30 Oct 2020
Potential Impact None Slight Moderate High
Time 29/23Z 30/00Z 30/01Z 30/02Z 30/03Z 30/04Z 30/05Z 30/06Z 30/07Z 30/08Z 30/09Z 30/10Z 30/11Z
Temp53 53 53 53 53 53 52 52 51 51 50 50 50
Dewpt50 49 50 50 50 50 48 48 48 48 48 47 46
Altim29.55 29.58 29.60 29.62 29.62 29.61 29.61 29.62 29.63 29.64 29.62 29.67 29.73
VIS10 10 4 8 10 10 10 10 6 7 10 10 10
CIG12 14 12 15 10 11 12 13 21 12 15 15 14
CoverOVCOVCOVCOVCOVCOVCOVCOVCOVCOVCOVCOVCOVC
FltCatMVFRMVFRMVFRMVFRMVFRMVFRMVFRMVFRMVFRMVFRMVFRMVFRMVFR
WX-----RA BR-RA-RA-----RARA BR-RA---RA--
WDir3403403503403602020302020340350350
WSpd15 11 9 11 10 11 13 13 10 10 16 18 13
WGst22 -- -- -- -- -- 22 -- -- -- 22 25 --
Raw hourly METARs
KDCA 292252Z 34015G22KT 10SM OVC012 12/10 A2955 RMK AO2 SLP007 T01170100
KDCA 292352Z 34011KT 10SM BKN014 OVC028 12/09 A2958 RMK AO2 SLP016 60039 T01170094 10178 20117 51049
KDCA 300052Z 35009KT 4SM -RA BR BKN012 OVC030 12/10 A2960 RMK AO2 RAB38 SLP023 P0002 T01170100
KDCA 300152Z 34011KT 8SM -RA OVC015 12/10 A2962 RMK AO2 SLP029 P0004 T01170100
KDCA 300303Z 36010KT 10SM -RA BKN010 BKN021 OVC038 12/10 A2962 RMK AO2 P0000 T01170100
KDCA 300352Z 02011KT 10SM OVC011 12/10 A2961 RMK AO2 RAE05 SLP027 P0000 T01170100
KDCA 300452Z 02013G22KT 10SM OVC012 11/09 A2961 RMK AO2 SLP026 T01110089 401780111
KDCA 300552Z 03013KT 10SM -RA OVC013 11/09 A2962 RMK AO2 RAB32 SLP029 P0000 60008 T01110089 10117 20111 55004
KDCA 300652Z 02010KT 6SM RA BR SCT014 BKN021 OVC030 11/09 A2963 RMK AO2 SLP034 P0014 T01060089
KDCA 300752Z 02010KT 7SM -RA BKN012 BKN020 OVC080 11/09 A2964 RMK AO2 SLP037 P0014 T01060089
KDCA 300852Z 34016G22KT 10SM BKN015 OVC020 10/09 A2962 RMK AO2 WSHFT 0837 RAE37 SLP031 P0002 60030 T01000089 50002
KDCA 300952Z 35018G25KT 10SM -RA BKN015 BKN019 OVC027 10/08 A2967 RMK AO2 RAB35 SLP046 P0000 T01000083
KDCA 301052Z 35013KT 10SM BKN014 OVC043 10/08 A2973 RMK AO2 RAE15 SLP066 P0000 T01000078



Page loaded:  11:03 UTC  |   04:03 AM Pacific  |   05:03 AM Mountain  |   06:03 AM Central  |   07:03 AM Eastern

 

ADVISORIES

FORECASTS

FORECASTS

OBSERVATIONS

USER TOOLS

ABOUT US